sensor_id;sensor_type;location;lat;lon;timestamp;temperature;humidity
40504;DHT22;42292;49.048;8.374;2022-12-13T00:01:56;-4.70;99.90
40504;DHT22;42292;49.048;8.374;2022-12-13T00:04:25;-4.80;99.90
40504;DHT22;42292;49.048;8.374;2022-12-13T00:06:51;-4.80;99.90
40504;DHT22;42292;49.048;8.374;2022-12-13T00:09:21;-4.70;99.90
40504;DHT22;42292;49.048;8.374;2022-12-13T00:11:47;-4.80;99.90
40504;DHT22;42292;49.048;8.374;2022-12-13T00:14:16;-4.80;99.90
40504;DHT22;42292;49.048;8.374;2022-12-13T00:16:46;-4.80;99.90
40504;DHT22;42292;49.048;8.374;2022-12-13T00:19:12;-4.80;99.90
40504;DHT22;42292;49.048;8.374;2022-12-13T00:21:40;-4.70;99.90
40504;DHT22;42292;49.048;8.374;2022-12-13T00:24:06;-4.70;99.90
40504;DHT22;42292;49.048;8.374;2022-12-13T00:26:33;-4.80;99.90
40504;DHT22;42292;49.048;8.374;2022-12-13T00:29:00;-4.80;99.90
40504;DHT22;42292;49.048;8.374;2022-12-13T00:31:26;-4.80;99.90
40504;DHT22;42292;49.048;8.374;2022-12-13T00:33:52;-4.80;99.90
40504;DHT22;42292;49.048;8.374;2022-12-13T00:36:20;-4.80;99.90
40504;DHT22;42292;49.048;8.374;2022-12-13T00:38:46;-4.80;99.90
40504;DHT22;42292;49.048;8.374;2022-12-13T00:41:25;-4.80;99.90
40504;DHT22;42292;49.048;8.374;2022-12-13T00:43:52;-4.90;99.90
40504;DHT22;42292;49.048;8.374;2022-12-13T00:46:19;-4.90;99.90
40504;DHT22;42292;49.048;8.374;2022-12-13T00:48:53;-4.90;99.90
40504;DHT22;42292;49.048;8.374;2022-12-13T00:51:22;-4.90;99.90
40504;DHT22;42292;49.048;8.374;2022-12-13T00:53:49;-4.90;99.90
40504;DHT22;42292;49.048;8.374;2022-12-13T00:56:22;-5.00;99.90
40504;DHT22;42292;49.048;8.374;2022-12-13T00:58:50;-5.00;99.90
40504;DHT22;42292;49.048;8.374;2022-12-13T01:01:18;-4.90;99.90
40504;DHT22;42292;49.048;8.374;2022-12-13T01:03:44;-4.90;99.90
40504;DHT22;42292;49.048;8.374;2022-12-13T01:06:18;-4.90;99.90
40504;DHT22;42292;49.048;8.374;2022-12-13T01:08:45;-5.00;99.90
40504;DHT22;42292;49.048;8.374;2022-12-13T01:11:11;-4.90;99.90
40504;DHT22;42292;49.048;8.374;2022-12-13T01:13:38;-5.00;99.90
40504;DHT22;42292;49.048;8.374;2022-12-13T01:16:05;-5.00;99.90
40504;DHT22;42292;49.048;8.374;2022-12-13T01:18:31;-5.00;99.90
40504;DHT22;42292;49.048;8.374;2022-12-13T01:21:16;-4.90;99.90
40504;DHT22;42292;49.048;8.374;2022-12-13T01:23:43;-4.90;99.90
40504;DHT22;42292;49.048;8.374;2022-12-13T01:26:13;-5.00;99.90
40504;DHT22;42292;49.048;8.374;2022-12-13T01:28:39;-5.00;99.90
40504;DHT22;42292;49.048;8.374;2022-12-13T01:31:12;-5.00;99.90
40504;DHT22;42292;49.048;8.374;2022-12-13T01:33:41;-5.10;99.90
40504;DHT22;42292;49.048;8.374;2022-12-13T01:36:10;-5.10;99.90
40504;DHT22;42292;49.048;8.374;2022-12-13T01:38:37;-5.10;99.90
40504;DHT22;42292;49.048;8.374;2022-12-13T01:41:05;-5.20;99.90
40504;DHT22;42292;49.048;8.374;2022-12-13T01:46:05;-5.10;99.90
40504;DHT22;42292;49.048;8.374;2022-12-13T01:48:35;-5.20;99.90
40504;DHT22;42292;49.048;8.374;2022-12-13T01:51:05;-5.20;99.90
40504;DHT22;42292;49.048;8.374;2022-12-13T01:53:36;-5.20;99.90
40504;DHT22;42292;49.048;8.374;2022-12-13T01:56:09;-5.20;99.90
40504;DHT22;42292;49.048;8.374;2022-12-13T01:58:39;-5.20;99.90
40504;DHT22;42292;49.048;8.374;2022-12-13T02:01:05;-5.20;99.90
40504;DHT22;42292;49.048;8.374;2022-12-13T02:03:34;-5.20;99.90
40504;DHT22;42292;49.048;8.374;2022-12-13T02:08:28;-5.30;99.90
40504;DHT22;42292;49.048;8.374;2022-12-13T02:10:54;-5.30;99.90
40504;DHT22;42292;49.048;8.374;2022-12-13T02:13:23;-5.30;99.90
40504;DHT22;42292;49.048;8.374;2022-12-13T02:16:00;-5.40;99.90
40504;DHT22;42292;49.048;8.374;2022-12-13T02:18:49;-5.40;99.90
40504;DHT22;42292;49.048;8.374;2022-12-13T02:40:42;-5.40;99.90
40504;DHT22;42292;49.048;8.374;2022-12-13T02:46:24;-5.40;99.90
40504;DHT22;42292;49.048;8.374;2022-12-13T02:48:54;-5.40;99.90
40504;DHT22;42292;49.048;8.374;2022-12-13T02:51:21;-5.40;99.90
40504;DHT22;42292;49.048;8.374;2022-12-13T02:53:47;-5.40;99.90
40504;DHT22;42292;49.048;8.374;2022-12-13T02:56:13;-5.40;99.90
40504;DHT22;42292;49.048;8.374;2022-12-13T02:58:43;-5.40;99.90
40504;DHT22;42292;49.048;8.374;2022-12-13T03:07:48;-5.40;99.90
40504;DHT22;42292;49.048;8.374;2022-12-13T03:10:24;-5.40;99.90
40504;DHT22;42292;49.048;8.374;2022-12-13T03:13:02;-5.40;99.90
40504;DHT22;42292;49.048;8.374;2022-12-13T03:15:54;-5.40;99.90
40504;DHT22;42292;49.048;8.374;2022-12-13T03:18:26;-5.50;99.90
40504;DHT22;42292;49.048;8.374;2022-12-13T03:20:57;-5.50;99.90
40504;DHT22;42292;49.048;8.374;2022-12-13T03:23:26;-5.40;99.90
40504;DHT22;42292;49.048;8.374;2022-12-13T03:25:55;-5.40;99.90
40504;DHT22;42292;49.048;8.374;2022-12-13T03:28:23;-5.40;99.90
40504;DHT22;42292;49.048;8.374;2022-12-13T03:30:48;-5.40;99.90
40504;DHT22;42292;49.048;8.374;2022-12-13T03:33:14;-5.40;99.90
40504;DHT22;42292;49.048;8.374;2022-12-13T03:35:41;-5.40;99.90
40504;DHT22;42292;49.048;8.374;2022-12-13T03:38:10;-5.40;99.90
40504;DHT22;42292;49.048;8.374;2022-12-13T03:40:36;-5.40;99.90
40504;DHT22;42292;49.048;8.374;2022-12-13T03:43:02;-5.40;99.90
40504;DHT22;42292;49.048;8.374;2022-12-13T03:45:30;-5.40;99.90
40504;DHT22;42292;49.048;8.374;2022-12-13T03:47:58;-5.40;99.90
40504;DHT22;42292;49.048;8.374;2022-12-13T03:50:26;-5.40;99.90
40504;DHT22;42292;49.048;8.374;2022-12-13T03:53:04;-5.40;99.90
40504;DHT22;42292;49.048;8.374;2022-12-13T03:55:29;-5.50;99.90
40504;DHT22;42292;49.048;8.374;2022-12-13T03:57:55;-5.50;99.90
40504;DHT22;42292;49.048;8.374;2022-12-13T04:00:23;-5.50;99.90
40504;DHT22;42292;49.048;8.374;2022-12-13T04:02:51;-5.50;99.90
40504;DHT22;42292;49.048;8.374;2022-12-13T04:05:17;-5.50;99.90
40504;DHT22;42292;49.048;8.374;2022-12-13T04:07:44;-5.40;99.90
40504;DHT22;42292;49.048;8.374;2022-12-13T04:10:10;-5.40;99.90
40504;DHT22;42292;49.048;8.374;2022-12-13T04:12:38;-5.50;99.90
40504;DHT22;42292;49.048;8.374;2022-12-13T04:15:22;-5.50;99.90
40504;DHT22;42292;49.048;8.374;2022-12-13T04:17:50;-5.60;99.90
40504;DHT22;42292;49.048;8.374;2022-12-13T04:20:15;-5.60;99.90
40504;DHT22;42292;49.048;8.374;2022-12-13T04:22:41;-5.60;99.90
40504;DHT22;42292;49.048;8.374;2022-12-13T04:25:07;-5.60;99.90
40504;DHT22;42292;49.048;8.374;2022-12-13T04:27:32;-5.60;99.90
40504;DHT22;42292;49.048;8.374;2022-12-13T04:29:58;-5.60;99.90
40504;DHT22;42292;49.048;8.374;2022-12-13T04:32:23;-5.60;99.90
40504;DHT22;42292;49.048;8.374;2022-12-13T04:34:49;-5.60;99.90
40504;DHT22;42292;49.048;8.374;2022-12-13T04:37:15;-5.60;99.90
40504;DHT22;42292;49.048;8.374;2022-12-13T04:39:40;-5.60;99.90
40504;DHT22;42292;49.048;8.374;2022-12-13T04:42:06;-5.60;99.90
40504;DHT22;42292;49.048;8.374;2022-12-13T04:44:32;-5.60;99.90
40504;DHT22;42292;49.048;8.374;2022-12-13T04:47:02;-5.60;99.90
40504;DHT22;42292;49.048;8.374;2022-12-13T04:49:30;-5.60;99.90
40504;DHT22;42292;49.048;8.374;2022-12-13T04:51:56;-5.70;99.90
40504;DHT22;42292;49.048;8.374;2022-12-13T04:54:24;-5.70;99.90
40504;DHT22;42292;49.048;8.374;2022-12-13T04:56:52;-5.80;99.90
40504;DHT22;42292;49.048;8.374;2022-12-13T04:59:20;-5.80;99.90
40504;DHT22;42292;49.048;8.374;2022-12-13T05:01:45;-5.80;99.90
40504;DHT22;42292;49.048;8.374;2022-12-13T05:04:11;-5.80;99.90
40504;DHT22;42292;49.048;8.374;2022-12-13T05:06:39;-5.80;99.90
40504;DHT22;42292;49.048;8.374;2022-12-13T05:09:07;-5.80;99.90
40504;DHT22;42292;49.048;8.374;2022-12-13T05:11:33;-5.90;99.90
40504;DHT22;42292;49.048;8.374;2022-12-13T05:13:58;-5.90;99.90
40504;DHT22;42292;49.048;8.374;2022-12-13T05:16:27;-5.90;99.90
40504;DHT22;42292;49.048;8.374;2022-12-13T05:18:52;-5.80;99.90
40504;DHT22;42292;49.048;8.374;2022-12-13T05:21:18;-5.90;99.90
40504;DHT22;42292;49.048;8.374;2022-12-13T05:23:43;-5.90;99.90
40504;DHT22;42292;49.048;8.374;2022-12-13T05:26:09;-5.90;99.90
40504;DHT22;42292;49.048;8.374;2022-12-13T05:28:34;-6.00;99.90
40504;DHT22;42292;49.048;8.374;2022-12-13T05:31:08;-6.00;99.90
40504;DHT22;42292;49.048;8.374;2022-12-13T05:33:34;-6.00;99.90
40504;DHT22;42292;49.048;8.374;2022-12-13T05:36:00;-6.00;99.90
40504;DHT22;42292;49.048;8.374;2022-12-13T05:38:28;-5.90;99.90
40504;DHT22;42292;49.048;8.374;2022-12-13T05:40:54;-6.00;99.90
40504;DHT22;42292;49.048;8.374;2022-12-13T05:43:22;-6.00;99.90
40504;DHT22;42292;49.048;8.374;2022-12-13T05:45:51;-6.00;99.90
40504;DHT22;42292;49.048;8.374;2022-12-13T05:48:18;-6.00;99.90
40504;DHT22;42292;49.048;8.374;2022-12-13T05:50:44;-6.00;99.90
40504;DHT22;42292;49.048;8.374;2022-12-13T05:53:14;-6.00;99.90
40504;DHT22;42292;49.048;8.374;2022-12-13T05:55:41;-6.00;99.90
40504;DHT22;42292;49.048;8.374;2022-12-13T05:58:08;-6.00;99.90
40504;DHT22;42292;49.048;8.374;2022-12-13T06:00:37;-6.10;99.90
40504;DHT22;42292;49.048;8.374;2022-12-13T06:03:08;-6.00;99.90
40504;DHT22;42292;49.048;8.374;2022-12-13T06:05:33;-6.10;99.90
40504;DHT22;42292;49.048;8.374;2022-12-13T06:08:01;-6.00;99.90
40504;DHT22;42292;49.048;8.374;2022-12-13T06:10:29;-6.00;99.90
40504;DHT22;42292;49.048;8.374;2022-12-13T06:12:55;-6.00;99.90
40504;DHT22;42292;49.048;8.374;2022-12-13T06:15:23;-6.00;99.90
40504;DHT22;42292;49.048;8.374;2022-12-13T06:17:53;-6.10;99.90
40504;DHT22;42292;49.048;8.374;2022-12-13T06:20:19;-6.10;99.90
40504;DHT22;42292;49.048;8.374;2022-12-13T06:22:48;-6.00;99.90
40504;DHT22;42292;49.048;8.374;2022-12-13T06:25:16;-6.10;99.90
40504;DHT22;42292;49.048;8.374;2022-12-13T06:27:41;-6.10;99.90
40504;DHT22;42292;49.048;8.374;2022-12-13T06:30:07;-6.20;99.90
40504;DHT22;42292;49.048;8.374;2022-12-13T06:32:33;-6.20;99.90
40504;DHT22;42292;49.048;8.374;2022-12-13T06:34:59;-6.10;99.90
40504;DHT22;42292;49.048;8.374;2022-12-13T06:37:25;-6.10;99.90
40504;DHT22;42292;49.048;8.374;2022-12-13T06:39:50;-6.10;99.90
40504;DHT22;42292;49.048;8.374;2022-12-13T06:42:18;-6.10;99.90
40504;DHT22;42292;49.048;8.374;2022-12-13T06:44:46;-6.10;99.90
40504;DHT22;42292;49.048;8.374;2022-12-13T06:47:18;-6.10;99.90
40504;DHT22;42292;49.048;8.374;2022-12-13T06:49:44;-6.10;99.90
40504;DHT22;42292;49.048;8.374;2022-12-13T06:52:14;-6.10;99.90
40504;DHT22;42292;49.048;8.374;2022-12-13T06:54:41;-6.00;99.90
40504;DHT22;42292;49.048;8.374;2022-12-13T06:57:07;-6.00;99.90
40504;DHT22;42292;49.048;8.374;2022-12-13T06:59:32;-6.00;99.90
40504;DHT22;42292;49.048;8.374;2022-12-13T07:01:58;-6.00;99.90
40504;DHT22;42292;49.048;8.374;2022-12-13T07:04:26;-5.90;99.90
40504;DHT22;42292;49.048;8.374;2022-12-13T07:06:54;-5.90;99.90
40504;DHT22;42292;49.048;8.374;2022-12-13T07:09:25;-5.80;99.90
40504;DHT22;42292;49.048;8.374;2022-12-13T07:11:50;-5.80;99.90
40504;DHT22;42292;49.048;8.374;2022-12-13T07:14:21;-5.80;99.90
40504;DHT22;42292;49.048;8.374;2022-12-13T07:16:49;-5.70;99.90
40504;DHT22;42292;49.048;8.374;2022-12-13T07:19:17;-5.70;99.90
40504;DHT22;42292;49.048;8.374;2022-12-13T07:21:42;-5.70;99.90
40504;DHT22;42292;49.048;8.374;2022-12-13T07:24:08;-5.70;99.90
40504;DHT22;42292;49.048;8.374;2022-12-13T07:26:34;-5.70;99.90
40504;DHT22;42292;49.048;8.374;2022-12-13T07:28:59;-5.60;99.90
40504;DHT22;42292;49.048;8.374;2022-12-13T07:31:25;-5.50;99.90
40504;DHT22;42292;49.048;8.374;2022-12-13T07:33:53;-5.50;99.90
40504;DHT22;42292;49.048;8.374;2022-12-13T07:36:21;-5.40;99.90
40504;DHT22;42292;49.048;8.374;2022-12-13T07:38:52;-5.40;99.90
40504;DHT22;42292;49.048;8.374;2022-12-13T07:41:19;-5.40;99.90
40504;DHT22;42292;49.048;8.374;2022-12-13T07:43:44;-5.30;99.90
40504;DHT22;42292;49.048;8.374;2022-12-13T07:46:10;-5.30;99.90
40504;DHT22;42292;49.048;8.374;2022-12-13T07:48:38;-5.20;99.90
40504;DHT22;42292;49.048;8.374;2022-12-13T07:51:08;-5.20;99.90
40504;DHT22;42292;49.048;8.374;2022-12-13T07:53:38;-5.20;99.90
40504;DHT22;42292;49.048;8.374;2022-12-13T07:56:08;-5.20;99.90
40504;DHT22;42292;49.048;8.374;2022-12-13T07:58:36;-5.10;99.90
40504;DHT22;42292;49.048;8.374;2022-12-13T08:01:08;-5.10;99.90
40504;DHT22;42292;49.048;8.374;2022-12-13T08:03:34;-5.10;99.90
40504;DHT22;42292;49.048;8.374;2022-12-13T08:08:27;-5.00;99.90
40504;DHT22;42292;49.048;8.374;2022-12-13T08:11:00;-4.90;99.90
40504;DHT22;42292;49.048;8.374;2022-12-13T08:13:28;-4.90;99.90
40504;DHT22;42292;49.048;8.374;2022-12-13T08:15:58;-4.90;99.90
40504;DHT22;42292;49.048;8.374;2022-12-13T08:18:24;-4.80;99.90
40504;DHT22;42292;49.048;8.374;2022-12-13T08:20:53;-4.80;99.90
40504;DHT22;42292;49.048;8.374;2022-12-13T08:23:21;-4.70;99.90
40504;DHT22;42292;49.048;8.374;2022-12-13T08:25:54;-4.60;99.90
40504;DHT22;42292;49.048;8.374;2022-12-13T08:28:19;-4.50;99.90
40504;DHT22;42292;49.048;8.374;2022-12-13T08:30:46;-4.40;99.90
40504;DHT22;42292;49.048;8.374;2022-12-13T08:33:15;-4.30;99.90
40504;DHT22;42292;49.048;8.374;2022-12-13T08:35:41;-4.20;99.90
40504;DHT22;42292;49.048;8.374;2022-12-13T08:38:09;-4.20;99.90
40504;DHT22;42292;49.048;8.374;2022-12-13T08:40:40;-4.00;99.90
40504;DHT22;42292;49.048;8.374;2022-12-13T08:43:05;-3.90;99.90
40504;DHT22;42292;49.048;8.374;2022-12-13T08:45:32;-3.80;99.90
40504;DHT22;42292;49.048;8.374;2022-12-13T08:47:59;-3.50;99.90
40504;DHT22;42292;49.048;8.374;2022-12-13T08:50:25;-3.40;99.90
40504;DHT22;42292;49.048;8.374;2022-12-13T08:52:51;-3.20;99.90
40504;DHT22;42292;49.048;8.374;2022-12-13T08:55:19;-3.10;99.90
40504;DHT22;42292;49.048;8.374;2022-12-13T08:57:44;-3.00;99.90
40504;DHT22;42292;49.048;8.374;2022-12-13T09:00:19;-2.90;99.90
40504;DHT22;42292;49.048;8.374;2022-12-13T09:02:48;-2.70;99.90
40504;DHT22;42292;49.048;8.374;2022-12-13T09:05:14;-2.60;99.90
40504;DHT22;42292;49.048;8.374;2022-12-13T09:07:42;-2.30;99.90
40504;DHT22;42292;49.048;8.374;2022-12-13T09:10:10;-2.00;99.90
40504;DHT22;42292;49.048;8.374;2022-12-13T09:12:40;-1.70;99.90
40504;DHT22;42292;49.048;8.374;2022-12-13T09:15:07;-1.70;99.90
40504;DHT22;42292;49.048;8.374;2022-12-13T09:17:33;-1.60;99.90
40504;DHT22;42292;49.048;8.374;2022-12-13T09:19:59;-1.60;99.90
40504;DHT22;42292;49.048;8.374;2022-12-13T09:22:27;-1.40;99.90
40504;DHT22;42292;49.048;8.374;2022-12-13T09:24:57;-1.60;99.90
40504;DHT22;42292;49.048;8.374;2022-12-13T09:27:25;-1.50;99.90
40504;DHT22;42292;49.048;8.374;2022-12-13T09:29:51;-1.50;99.90
40504;DHT22;42292;49.048;8.374;2022-12-13T09:32:17;-1.40;99.90
40504;DHT22;42292;49.048;8.374;2022-12-13T09:34:42;-1.20;99.90
40504;DHT22;42292;49.048;8.374;2022-12-13T09:37:08;-1.10;99.90
40504;DHT22;42292;49.048;8.374;2022-12-13T09:39:40;-0.90;99.90
40504;DHT22;42292;49.048;8.374;2022-12-13T09:42:18;-0.90;99.90
40504;DHT22;42292;49.048;8.374;2022-12-13T09:44:51;-0.80;99.90
40504;DHT22;42292;49.048;8.374;2022-12-13T09:47:40;-0.90;99.90
40504;DHT22;42292;49.048;8.374;2022-12-13T09:50:11;-0.90;99.90
40504;DHT22;42292;49.048;8.374;2022-12-13T09:52:41;-0.80;99.90
40504;DHT22;42292;49.048;8.374;2022-12-13T09:55:30;-0.80;99.90
40504;DHT22;42292;49.048;8.374;2022-12-13T09:57:57;-0.90;99.90
40504;DHT22;42292;49.048;8.374;2022-12-13T10:00:33;-0.60;99.90
40504;DHT22;42292;49.048;8.374;2022-12-13T10:02:59;-0.40;99.90
40504;DHT22;42292;49.048;8.374;2022-12-13T10:05:31;-0.20;99.90
40504;DHT22;42292;49.048;8.374;2022-12-13T10:08:10;-0.10;99.90
40504;DHT22;42292;49.048;8.374;2022-12-13T10:10:36;-0.30;99.90
40504;DHT22;42292;49.048;8.374;2022-12-13T10:15:37;-0.30;99.90
40504;DHT22;42292;49.048;8.374;2022-12-13T10:18:08;-0.40;99.90
40504;DHT22;42292;49.048;8.374;2022-12-13T10:20:37;-0.20;99.90
40504;DHT22;42292;49.048;8.374;2022-12-13T10:23:03;0.00;99.90
40504;DHT22;42292;49.048;8.374;2022-12-13T10:25:51;0.20;99.90
40504;DHT22;42292;49.048;8.374;2022-12-13T10:28:28;0.60;99.90
40504;DHT22;42292;49.048;8.374;2022-12-13T10:30:58;1.20;99.90
40504;DHT22;42292;49.048;8.374;2022-12-13T10:33:27;1.40;99.90
40504;DHT22;42292;49.048;8.374;2022-12-13T10:38:38;1.80;99.90
40504;DHT22;42292;49.048;8.374;2022-12-13T10:41:25;2.10;99.90
40504;DHT22;42292;49.048;8.374;2022-12-13T10:44:27;2.50;99.90
40504;DHT22;42292;49.048;8.374;2022-12-13T10:47:22;2.30;99.90
40504;DHT22;42292;49.048;8.374;2022-12-13T10:49:53;2.80;99.90
40504;DHT22;42292;49.048;8.374;2022-12-13T10:52:25;2.20;99.90
40504;DHT22;42292;49.048;8.374;2022-12-13T10:54:51;2.20;99.90
40504;DHT22;42292;49.048;8.374;2022-12-13T10:57:18;3.10;99.90
40504;DHT22;42292;49.048;8.374;2022-12-13T10:59:47;3.90;99.90
40504;DHT22;42292;49.048;8.374;2022-12-13T11:02:32;3.90;99.90
40504;DHT22;42292;49.048;8.374;2022-12-13T11:04:59;4.30;99.90
40504;DHT22;42292;49.048;8.374;2022-12-13T11:07:40;4.30;99.90
40504;DHT22;42292;49.048;8.374;2022-12-13T11:12:44;3.90;99.90
40504;DHT22;42292;49.048;8.374;2022-12-13T11:15:21;3.50;99.90
40504;DHT22;42292;49.048;8.374;2022-12-13T11:18:20;3.80;99.90
40504;DHT22;42292;49.048;8.374;2022-12-13T11:20:56;3.50;99.90
40504;DHT22;42292;49.048;8.374;2022-12-13T11:23:35;3.10;99.90
40504;DHT22;42292;49.048;8.374;2022-12-13T11:26:15;3.40;99.90
40504;DHT22;42292;49.048;8.374;2022-12-13T11:31:44;3.70;99.90
40504;DHT22;42292;49.048;8.374;2022-12-13T11:34:34;4.00;99.90
40504;DHT22;42292;49.048;8.374;2022-12-13T11:40:23;3.00;99.90
40504;DHT22;42292;49.048;8.374;2022-12-13T11:45:59;4.30;99.90
40504;DHT22;42292;49.048;8.374;2022-12-13T11:51:20;5.00;99.90
40504;DHT22;42292;49.048;8.374;2022-12-13T11:58:50;4.30;99.90
40504;DHT22;42292;49.048;8.374;2022-12-13T12:01:33;4.70;99.90
40504;DHT22;42292;49.048;8.374;2022-12-13T12:04:20;5.20;99.90
40504;DHT22;42292;49.048;8.374;2022-12-13T12:09:37;4.80;99.90
40504;DHT22;42292;49.048;8.374;2022-12-13T12:12:18;4.70;99.90
40504;DHT22;42292;49.048;8.374;2022-12-13T12:17:43;5.30;99.90
40504;DHT22;42292;49.048;8.374;2022-12-13T12:20:13;4.70;99.90
40504;DHT22;42292;49.048;8.374;2022-12-13T12:25:22;4.20;99.90
40504;DHT22;42292;49.048;8.374;2022-12-13T12:33:29;4.20;99.90
40504;DHT22;42292;49.048;8.374;2022-12-13T12:41:50;6.20;98.30
40504;DHT22;42292;49.048;8.374;2022-12-13T13:00:57;7.50;92.10
40504;DHT22;42292;49.048;8.374;2022-12-13T13:03:34;7.00;93.00
40504;DHT22;42292;49.048;8.374;2022-12-13T13:11:09;6.10;93.20
40504;DHT22;42292;49.048;8.374;2022-12-13T13:16:28;5.50;94.40
40504;DHT22;42292;49.048;8.374;2022-12-13T13:19:38;4.80;95.40
40504;DHT22;42292;49.048;8.374;2022-12-13T13:21:53;4.80;95.80
40504;DHT22;42292;49.048;8.374;2022-12-13T13:34:40;3.50;98.90
40504;DHT22;42292;49.048;8.374;2022-12-13T13:42:24;2.60;99.90
40504;DHT22;42292;49.048;8.374;2022-12-13T13:55:41;1.60;99.90
40504;DHT22;42292;49.048;8.374;2022-12-13T13:58:34;1.60;99.90
40504;DHT22;42292;49.048;8.374;2022-12-13T14:01:36;1.40;99.90
40504;DHT22;42292;49.048;8.374;2022-12-13T14:23:30;0.60;99.90
40504;DHT22;42292;49.048;8.374;2022-12-13T14:26:22;0.60;99.90
40504;DHT22;42292;49.048;8.374;2022-12-13T14:28:55;0.60;99.90
40504;DHT22;42292;49.048;8.374;2022-12-13T14:31:25;0.30;99.90
40504;DHT22;42292;49.048;8.374;2022-12-13T14:33:55;0.40;99.90
40504;DHT22;42292;49.048;8.374;2022-12-13T14:36:28;0.30;99.90
40504;DHT22;42292;49.048;8.374;2022-12-13T14:39:15;0.40;99.90
40504;DHT22;42292;49.048;8.374;2022-12-13T14:41:50;0.20;99.90
40504;DHT22;42292;49.048;8.374;2022-12-13T14:44:22;0.10;99.90
40504;DHT22;42292;49.048;8.374;2022-12-13T14:47:09;-0.10;99.90
40504;DHT22;42292;49.048;8.374;2022-12-13T14:49:41;-0.30;99.90
40504;DHT22;42292;49.048;8.374;2022-12-13T14:52:13;-0.40;99.90
40504;DHT22;42292;49.048;8.374;2022-12-13T14:54:58;-0.40;99.90
40504;DHT22;42292;49.048;8.374;2022-12-13T14:57:31;-0.40;99.90
40504;DHT22;42292;49.048;8.374;2022-12-13T14:59:58;-0.50;99.90
40504;DHT22;42292;49.048;8.374;2022-12-13T15:02:30;-0.60;99.90
40504;DHT22;42292;49.048;8.374;2022-12-13T15:05:02;-0.50;99.90
40504;DHT22;42292;49.048;8.374;2022-12-13T15:07:38;-0.60;99.90
40504;DHT22;42292;49.048;8.374;2022-12-13T15:10:21;-0.70;99.90
40504;DHT22;42292;49.048;8.374;2022-12-13T15:12:50;-0.70;99.90
40504;DHT22;42292;49.048;8.374;2022-12-13T15:15:34;-0.80;99.90
40504;DHT22;42292;49.048;8.374;2022-12-13T15:20:39;-0.90;99.90
40504;DHT22;42292;49.048;8.374;2022-12-13T15:25:56;-1.00;99.90
40504;DHT22;42292;49.048;8.374;2022-12-13T15:28:30;-1.10;99.90
40504;DHT22;42292;49.048;8.374;2022-12-13T15:30:58;-1.10;99.90
40504;DHT22;42292;49.048;8.374;2022-12-13T15:33:28;-1.20;99.90
40504;DHT22;42292;49.048;8.374;2022-12-13T15:38:39;-1.20;99.90
40504;DHT22;42292;49.048;8.374;2022-12-13T15:41:15;-1.20;99.90
40504;DHT22;42292;49.048;8.374;2022-12-13T15:43:44;-1.30;99.90
40504;DHT22;42292;49.048;8.374;2022-12-13T15:46:12;-1.30;99.90
40504;DHT22;42292;49.048;8.374;2022-12-13T15:48:40;-1.30;99.90
40504;DHT22;42292;49.048;8.374;2022-12-13T15:51:12;-1.30;99.90
40504;DHT22;42292;49.048;8.374;2022-12-13T15:53:39;-1.30;99.90
40504;DHT22;42292;49.048;8.374;2022-12-13T15:56:38;-1.30;99.90
40504;DHT22;42292;49.048;8.374;2022-12-13T16:01:51;-1.20;99.90
40504;DHT22;42292;49.048;8.374;2022-12-13T16:04:22;-1.20;99.90
40504;DHT22;42292;49.048;8.374;2022-12-13T16:06:49;-1.30;99.90
40504;DHT22;42292;49.048;8.374;2022-12-13T16:09:19;-1.30;99.90
40504;DHT22;42292;49.048;8.374;2022-12-13T16:11:52;-1.30;99.90
40504;DHT22;42292;49.048;8.374;2022-12-13T16:14:34;-1.30;99.90
40504;DHT22;42292;49.048;8.374;2022-12-13T16:17:22;-1.20;99.90
40504;DHT22;42292;49.048;8.374;2022-12-13T16:19:50;-1.30;99.90
40504;DHT22;42292;49.048;8.374;2022-12-13T16:22:16;-1.30;99.90
40504;DHT22;42292;49.048;8.374;2022-12-13T16:24:46;-1.30;99.90
40504;DHT22;42292;49.048;8.374;2022-12-13T16:27:17;-1.30;99.90
40504;DHT22;42292;49.048;8.374;2022-12-13T16:29:43;-1.40;99.90
40504;DHT22;42292;49.048;8.374;2022-12-13T16:32:08;-1.40;99.90
40504;DHT22;42292;49.048;8.374;2022-12-13T16:34:37;-1.40;99.90
40504;DHT22;42292;49.048;8.374;2022-12-13T16:37:04;-1.40;99.90
40504;DHT22;42292;49.048;8.374;2022-12-13T16:39:29;-1.50;99.90
40504;DHT22;42292;49.048;8.374;2022-12-13T16:41:55;-1.50;99.90
40504;DHT22;42292;49.048;8.374;2022-12-13T16:44:35;-1.50;99.90
40504;DHT22;42292;49.048;8.374;2022-12-13T16:47:06;-1.60;99.90
40504;DHT22;42292;49.048;8.374;2022-12-13T16:49:32;-1.60;99.90
40504;DHT22;42292;49.048;8.374;2022-12-13T16:52:00;-1.60;99.90
40504;DHT22;42292;49.048;8.374;2022-12-13T16:54:27;-1.60;99.90
40504;DHT22;42292;49.048;8.374;2022-12-13T16:56:53;-1.60;99.90
40504;DHT22;42292;49.048;8.374;2022-12-13T16:59:21;-1.60;99.90
40504;DHT22;42292;49.048;8.374;2022-12-13T17:01:47;-1.50;99.90
40504;DHT22;42292;49.048;8.374;2022-12-13T17:04:15;-1.60;99.90
40504;DHT22;42292;49.048;8.374;2022-12-13T17:06:42;-1.60;99.90
40504;DHT22;42292;49.048;8.374;2022-12-13T17:09:08;-1.50;99.90
40504;DHT22;42292;49.048;8.374;2022-12-13T17:11:37;-1.50;99.90
40504;DHT22;42292;49.048;8.374;2022-12-13T17:14:04;-1.50;99.90
40504;DHT22;42292;49.048;8.374;2022-12-13T17:16:30;-1.50;99.90
40504;DHT22;42292;49.048;8.374;2022-12-13T17:18:56;-1.50;99.90
40504;DHT22;42292;49.048;8.374;2022-12-13T17:21:27;-1.50;99.90
40504;DHT22;42292;49.048;8.374;2022-12-13T17:23:58;-1.60;99.90
40504;DHT22;42292;49.048;8.374;2022-12-13T17:26:24;-1.60;99.90
40504;DHT22;42292;49.048;8.374;2022-12-13T17:28:50;-1.60;99.90
40504;DHT22;42292;49.048;8.374;2022-12-13T17:31:16;-1.50;99.90
40504;DHT22;42292;49.048;8.374;2022-12-13T17:33:42;-1.50;99.90
40504;DHT22;42292;49.048;8.374;2022-12-13T17:36:10;-1.60;99.90
40504;DHT22;42292;49.048;8.374;2022-12-13T17:38:36;-1.60;99.90
40504;DHT22;42292;49.048;8.374;2022-12-13T17:41:02;-1.50;99.90
40504;DHT22;42292;49.048;8.374;2022-12-13T17:43:28;-1.50;99.90
40504;DHT22;42292;49.048;8.374;2022-12-13T17:46:03;-1.60;99.90
40504;DHT22;42292;49.048;8.374;2022-12-13T17:48:29;-1.60;99.90
40504;DHT22;42292;49.048;8.374;2022-12-13T17:50:58;-1.60;99.90
40504;DHT22;42292;49.048;8.374;2022-12-13T17:53:24;-1.60;99.90
40504;DHT22;42292;49.048;8.374;2022-12-13T17:56:03;-1.50;99.90
40504;DHT22;42292;49.048;8.374;2022-12-13T17:58:32;-1.60;99.90
40504;DHT22;42292;49.048;8.374;2022-12-13T18:01:01;-1.40;99.90
40504;DHT22;42292;49.048;8.374;2022-12-13T18:03:35;-1.60;99.90
40504;DHT22;42292;49.048;8.374;2022-12-13T18:06:01;-1.60;99.90
40504;DHT22;42292;49.048;8.374;2022-12-13T18:08:26;-1.60;99.90
40504;DHT22;42292;49.048;8.374;2022-12-13T18:10:56;-1.70;99.90
40504;DHT22;42292;49.048;8.374;2022-12-13T18:13:23;-1.60;99.90
40504;DHT22;42292;49.048;8.374;2022-12-13T18:15:50;-1.60;99.90
40504;DHT22;42292;49.048;8.374;2022-12-13T18:18:15;-1.60;99.90
40504;DHT22;42292;49.048;8.374;2022-12-13T18:20:41;-1.50;99.90
40504;DHT22;42292;49.048;8.374;2022-12-13T18:23:08;-1.50;99.90
40504;DHT22;42292;49.048;8.374;2022-12-13T18:25:33;-1.50;99.90
40504;DHT22;42292;49.048;8.374;2022-12-13T18:27:59;-1.50;99.90
40504;DHT22;42292;49.048;8.374;2022-12-13T18:30:24;-1.50;99.90
40504;DHT22;42292;49.048;8.374;2022-12-13T18:32:52;-1.50;99.90